Time;durP1;ratioP1;P1;durP2;ratioP2;P2;SDS_P1;SDS_P2;PMS_P1;PMS_P2;Temp;Humidity;BMP_temperature;BMP_pressure;BME280_temperature;BME280_humidity;BME280_pressure;Samples;Min_cycle;Max_cycle;Signal;HPM_P1;HPM_P2
2022/11/10 00:00:15;;;;;;;25.42;23.60;;;;;;;13.42;63.51;101603.31;5030607;28;20034;-73
2022/11/10 00:02:42;;;;;;;22.80;21.45;;;;;;;13.42;63.86;101607.91;5014437;28;20030;-73
2022/11/10 00:05:09;;;;;;;24.00;22.30;;;;;;;13.42;63.28;101616.88;5013453;28;20030;-72
2022/11/10 00:07:34;;;;;;;23.63;22.27;;;;;;;13.41;63.54;101617.97;5013804;28;20470;-73
2022/11/10 00:09:59;;;;;;;24.00;22.60;;;;;;;13.40;63.61;101615.47;5033789;28;20033;-73
2022/11/10 00:12:25;;;;;;;25.58;23.77;;;;;;;13.39;63.79;101614.66;5030199;28;20812;-74
2022/11/10 00:17:35;;;;;;;24.75;23.15;;;;;;;13.37;63.66;101599.69;5031619;28;20167;-73
2022/11/10 00:20:00;;;;;;;23.27;21.92;;;;;;;13.37;63.69;101599.69;5020483;28;20034;-73
2022/11/10 00:22:26;;;;;;;25.67;23.63;;;;;;;13.35;63.72;101608.03;5013014;28;20029;-73
2022/11/10 00:24:51;;;;;;;25.15;23.45;;;;;;;13.35;63.64;101618.09;5013745;28;20474;-74
2022/11/10 00:27:16;;;;;;;25.45;23.85;;;;;;;13.34;63.64;101622.69;5019518;28;20025;-73
2022/11/10 00:29:42;;;;;;;23.35;21.75;;;;;;;13.33;63.95;101621.06;5025965;28;20074;-73
2022/11/10 00:32:07;;;;;;;23.48;21.80;;;;;;;13.33;63.62;101629.19;5030860;28;20052;-73
2022/11/10 00:34:33;;;;;;;23.88;22.48;;;;;;;13.32;63.74;101632.13;5014531;28;20056;-73
2022/11/10 00:36:59;;;;;;;24.17;22.65;;;;;;;13.30;63.85;101648.66;5013247;28;20367;-73
2022/11/10 00:39:24;;;;;;;27.00;24.88;;;;;;;13.30;64.08;101636.97;5031906;28;20079;-73
2022/11/10 00:41:50;;;;;;;24.13;22.83;;;;;;;13.28;63.74;101634.50;5013058;28;20116;-73
2022/11/10 00:44:15;;;;;;;24.08;22.33;;;;;;;13.27;63.65;101638.28;5012696;28;20085;-73
2022/11/10 00:46:40;;;;;;;22.85;21.45;;;;;;;13.27;63.49;101632.84;5013004;28;20041;-73
2022/11/10 00:49:06;;;;;;;22.75;21.45;;;;;;;13.26;63.47;101641.22;5026561;28;20538;-73
2022/11/10 00:51:31;;;;;;;25.70;24.17;;;;;;;13.26;63.37;101643.94;5046879;28;20045;-73
2022/11/10 00:53:57;;;;;;;25.23;23.35;;;;;;;13.25;63.39;101648.50;5022978;28;20072;-71
2022/11/10 00:56:22;;;;;;;24.70;22.67;;;;;;;13.25;63.73;101642.25;5012623;28;20030;-73
2022/11/10 00:58:48;;;;;;;23.10;21.52;;;;;;;13.24;63.99;101646.03;5019740;28;20536;-71
2022/11/10 01:01:15;;;;;;;23.83;22.10;;;;;;;13.23;63.90;101636.25;5021088;28;20030;-72
2022/11/10 01:03:40;;;;;;;23.80;22.10;;;;;;;13.22;63.66;101649.00;5012959;28;20018;-71
2022/11/10 01:06:14;;;;;;;22.15;20.75;;;;;;;13.21;63.78;101644.63;5012983;28;20446;-75
2022/11/10 01:08:40;;;;;;;24.42;23.00;;;;;;;13.19;63.53;101644.03;5016317;28;20036;-72
2022/11/10 01:11:22;;;;;;;24.00;22.48;;;;;;;13.19;63.70;101641.34;5030574;28;20042;-72
2022/11/10 01:13:50;;;;;;;23.00;21.55;;;;;;;13.17;63.80;101649.69;5017400;28;20504;-74
2022/11/10 01:16:21;;;;;;;22.85;21.33;;;;;;;13.16;63.63;101656.19;5012280;28;20461;-73
2022/11/10 01:18:51;;;;;;;24.77;23.27;;;;;;;13.16;63.59;101666.22;5012917;28;20092;-73
2022/11/10 01:21:18;;;;;;;24.92;22.85;;;;;;;13.14;63.88;101671.88;5017940;28;20024;-75
2022/11/10 01:23:44;;;;;;;23.90;22.33;;;;;;;13.14;63.85;101676.47;5019373;28;20065;-71
2022/11/10 01:26:09;;;;;;;24.63;23.33;;;;;;;13.13;63.88;101688.41;5012433;28;20057;-72
2022/11/10 01:28:37;;;;;;;25.33;23.15;;;;;;;13.13;63.77;101688.41;5011834;28;20141;-72
2022/11/10 01:31:10;;;;;;;22.92;21.67;;;;;;;13.11;63.71;101683.22;5023613;28;20030;-71
2022/11/10 01:33:36;;;;;;;23.30;22.10;;;;;;;13.10;63.58;101681.56;5028750;28;20048;-72
2022/11/10 01:36:02;;;;;;;22.80;21.63;;;;;;;13.09;63.88;101679.09;5012511;28;20030;-73
2022/11/10 01:38:30;;;;;;;24.45;22.85;;;;;;;13.09;63.61;101679.09;5011994;28;20319;-72
2022/11/10 01:40:56;;;;;;;22.77;21.02;;;;;;;13.07;64.11;101679.31;5015715;28;20030;-72
2022/11/10 01:43:22;;;;;;;25.52;23.48;;;;;;;13.08;63.90;101690.97;5026345;28;20115;-72
2022/11/10 01:45:56;;;;;;;23.95;22.33;;;;;;;13.07;63.65;101683.91;5012310;28;20107;-72
2022/11/10 01:48:55;;;;;;;25.27;23.55;;;;;;;13.05;63.85;101686.03;5011819;28;20062;-72
2022/11/10 01:51:27;;;;;;;24.85;22.90;;;;;;;13.04;63.66;101687.09;5021098;28;20048;-72
2022/11/10 01:54:05;;;;;;;23.45;22.05;;;;;;;13.03;63.76;101685.44;5031116;28;20041;-73
2022/11/10 01:56:35;;;;;;;25.75;23.80;;;;;;;13.03;63.81;101677.31;5011679;28;20032;-72
2022/11/10 01:59:05;;;;;;;23.63;22.38;;;;;;;13.01;63.65;101672.13;5012262;28;20037;-73
2022/11/10 02:01:30;;;;;;;24.70;23.05;;;;;;;12.99;63.90;101669.63;5030069;28;20021;-73
2022/11/10 02:03:59;;;;;;;22.10;20.92;;;;;;;12.99;63.81;101680.50;5026211;28;20033;-73
2022/11/10 02:06:26;;;;;;;25.08;23.05;;;;;;;12.98;63.82;101687.00;5014064;28;20036;-73
2022/11/10 02:08:53;;;;;;;23.60;22.13;;;;;;;12.99;64.02;101685.91;5011745;28;20049;-72
2022/11/10 02:11:20;;;;;;;23.38;21.75;;;;;;;12.98;63.56;101680.75;5011929;28;20038;-76
2022/11/10 02:13:46;;;;;;;23.35;21.80;;;;;;;12.97;63.83;101690.75;5027588;28;20039;-77
2022/11/10 02:16:11;;;;;;;22.67;21.45;;;;;;;12.95;63.98;101701.03;5028664;28;20029;-72
2022/11/10 02:18:37;;;;;;;24.23;22.80;;;;;;;12.94;63.89;101707.50;5016890;28;20037;-73
2022/11/10 02:21:06;;;;;;;23.15;21.95;;;;;;;12.94;63.91;101693.13;5011843;28;20065;-72
2022/11/10 02:23:33;;;;;;;25.42;23.88;;;;;;;12.94;63.84;101698.53;5020698;28;20021;-72
2022/11/10 02:25:58;;;;;;;25.52;23.77;;;;;;;12.93;64.20;101697.72;5014385;28;20116;-72
2022/11/10 02:28:24;;;;;;;24.85;22.80;;;;;;;12.93;63.72;101705.84;5010860;28;20164;-72
2022/11/10 02:30:50;;;;;;;26.38;24.63;;;;;;;12.92;63.62;101711.50;5011414;28;20033;-72
2022/11/10 02:33:19;;;;;;;23.10;21.77;;;;;;;12.91;63.61;101718.81;5018447;28;20025;-72
2022/11/10 02:35:47;;;;;;;23.65;22.15;;;;;;;12.91;63.86;101718.00;5032055;28;20121;-73
2022/11/10 02:38:13;;;;;;;22.67;20.80;;;;;;;12.90;63.73;101729.88;5018372;28;20033;-73
2022/11/10 02:40:39;;;;;;;23.92;22.52;;;;;;;12.89;63.92;101731.78;5017573;28;20025;-73
2022/11/10 02:43:07;;;;;;;23.13;21.42;;;;;;;12.88;63.84;101743.69;5020306;28;20059;-73
2022/11/10 02:45:32;;;;;;;24.63;22.75;;;;;;;12.87;63.97;101750.16;5047810;28;20024;-73
2022/11/10 02:47:58;;;;;;;22.67;21.00;;;;;;;12.87;63.82;101743.91;5025136;28;20029;-73
2022/11/10 02:50:23;;;;;;;25.27;23.65;;;;;;;12.85;63.85;101746.88;5017497;28;20033;-75
2022/11/10 02:52:48;;;;;;;23.02;21.52;;;;;;;12.85;63.87;101738.75;5017975;28;20030;-73
2022/11/10 02:55:14;;;;;;;23.50;21.75;;;;;;;12.84;63.62;101737.06;5033127;28;20033;-73
2022/11/10 02:57:39;;;;;;;24.88;22.90;;;;;;;12.85;63.92;101749.59;5017381;28;20112;-73
2022/11/10 03:00:07;;;;;;;25.10;22.85;;;;;;;12.83;63.76;101746.28;5017692;28;20104;-73
2022/11/10 03:02:32;;;;;;;24.33;22.88;;;;;;;12.82;63.92;101751.91;5016892;28;20037;-73
2022/11/10 03:04:57;;;;;;;23.13;21.55;;;;;;;12.81;63.87;101759.22;5029656;28;20044;-73
2022/11/10 03:07:23;;;;;;;22.67;20.92;;;;;;;12.81;64.09;101755.69;5034367;28;20053;-74
2022/11/10 03:09:48;;;;;;;22.38;21.08;;;;;;;12.80;63.92;101757.59;5017322;28;20022;-71
2022/11/10 03:12:14;;;;;;;21.70;20.60;;;;;;;12.80;64.03;101763.03;5017692;28;20377;-72
2022/11/10 03:14:39;;;;;;;24.77;23.27;;;;;;;12.80;64.03;101762.16;5019620;28;20054;-71
2022/11/10 03:17:04;;;;;;;21.75;20.65;;;;;;;12.77;64.02;101764.31;5022646;28;20033;-71
2022/11/10 03:19:30;;;;;;;23.92;22.55;;;;;;;12.78;63.84;101767.84;5024885;28;20034;-71
2022/11/10 03:21:55;;;;;;;23.05;21.75;;;;;;;12.76;63.67;101773.47;5017519;28;20026;-71
2022/11/10 03:24:20;;;;;;;22.35;20.70;;;;;;;12.76;63.96;101783.50;5017615;28;20164;-72
2022/11/10 03:26:46;;;;;;;23.30;21.52;;;;;;;12.75;63.75;101781.84;5029427;28;20366;-73
2022/11/10 03:29:11;;;;;;;22.55;21.25;;;;;;;12.74;64.04;101783.72;5023351;28;20458;-73
2022/11/10 03:31:36;;;;;;;26.25;24.05;;;;;;;12.73;63.80;101790.22;5016906;28;20037;-71
2022/11/10 03:34:02;;;;;;;23.23;21.83;;;;;;;12.73;63.67;101792.13;5017528;28;20100;-72
2022/11/10 03:36:27;;;;;;;22.92;21.23;;;;;;;12.72;63.86;101793.16;5027727;28;20810;-80
2022/11/10 03:38:53;;;;;;;22.98;21.58;;;;;;;12.71;63.80;101807.78;5026550;28;20034;-72
2022/11/10 03:41:18;;;;;;;22.85;21.50;;;;;;;12.71;63.94;101811.31;5017252;28;20038;-73
2022/11/10 03:43:43;;;;;;;23.77;22.27;;;;;;;12.69;63.88;101810.72;5031980;28;20160;-73
2022/11/10 03:46:09;;;;;;;24.70;23.20;;;;;;;12.69;63.87;101812.59;5038508;28;20474;-73
2022/11/10 03:48:35;;;;;;;23.30;21.80;;;;;;;12.68;63.93;101819.09;5045173;28;20056;-73
2022/11/10 03:51:00;;;;;;;23.40;21.92;;;;;;;12.67;63.87;101820.94;5014413;28;20058;-73
2022/11/10 03:53:25;;;;;;;22.05;20.75;;;;;;;12.67;63.83;101822.84;5014306;28;20053;-73
2022/11/10 03:55:51;;;;;;;24.05;22.73;;;;;;;12.64;64.24;101818.69;5014984;28;20557;-74
2022/11/10 03:58:16;;;;;;;22.25;21.00;;;;;;;12.64;64.11;101817.88;5029912;28;20063;-73
2022/11/10 04:00:41;;;;;;;22.95;21.48;;;;;;;12.64;63.87;101816.00;5013864;28;20033;-73
2022/11/10 04:03:07;;;;;;;22.98;21.58;;;;;;;12.63;63.38;101811.63;5014164;28;20065;-73
2022/11/10 04:11:01;;;;;;;23.95;22.30;;;;;;;12.60;63.97;101831.09;5019245;28;20099;-73
2022/11/10 04:16:11;;;;;;;21.33;20.23;;;;;;;12.59;63.88;101836.72;5013743;28;20041;-75
2022/11/10 04:18:36;;;;;;;24.58;22.67;;;;;;;12.58;63.71;101841.31;5032510;28;20059;-73
2022/11/10 04:21:02;;;;;;;22.60;21.17;;;;;;;12.56;64.10;101844.25;5021734;28;20036;-73
2022/11/10 04:23:33;;;;;;;23.75;21.70;;;;;;;12.56;64.03;101852.38;5013240;28;20030;-73
2022/11/10 04:28:44;;;;;;;22.67;21.20;;;;;;;12.53;63.82;101847.41;5025159;28;20068;-72
2022/11/10 04:31:10;;;;;;;24.02;22.70;;;;;;;12.54;64.17;101851.78;5013640;28;20041;-76
2022/11/10 04:33:36;;;;;;;23.40;21.75;;;;;;;12.53;63.97;101852.03;5013152;28;20088;-71
2022/11/10 04:36:02;;;;;;;22.73;21.48;;;;;;;12.53;63.76;101860.16;5013536;28;20413;-73
2022/11/10 04:38:27;;;;;;;21.88;20.77;;;;;;;12.52;64.04;101858.47;5017330;28;20034;-73
2022/11/10 04:40:52;;;;;;;22.02;20.80;;;;;;;12.52;64.05;101863.91;5012899;28;20030;-73
2022/11/10 04:43:18;;;;;;;22.23;20.60;;;;;;;12.50;63.93;101864.16;5016653;28;20147;-73
2022/11/10 04:45:43;;;;;;;24.48;22.90;;;;;;;12.51;63.99;101878.50;5012643;28;20061;-73
2022/11/10 04:48:08;;;;;;;24.48;22.67;;;;;;;12.49;64.09;101881.44;5017163;28;20043;-73
2022/11/10 04:50:34;;;;;;;24.10;22.73;;;;;;;12.49;64.12;101892.28;5012619;28;20026;-76
2022/11/10 04:52:59;;;;;;;21.83;20.52;;;;;;;12.47;64.06;101891.72;5019083;28;20529;-73
2022/11/10 04:55:25;;;;;;;24.35;22.50;;;;;;;12.48;63.92;101892.53;5013166;28;20033;-73
2022/11/10 04:57:50;;;;;;;26.70;24.38;;;;;;;12.47;63.80;101897.13;5012578;28;20458;-72
2022/11/10 05:00:16;;;;;;;21.58;20.08;;;;;;;12.47;64.13;101910.69;5035913;28;20080;-72
2022/11/10 05:02:41;;;;;;;24.85;23.30;;;;;;;12.46;63.99;101909.00;5030790;28;20025;-73
2022/11/10 05:05:07;;;;;;;22.63;20.92;;;;;;;12.45;64.17;101910.06;5031100;28;20033;-72
2022/11/10 05:07:32;;;;;;;21.42;20.33;;;;;;;12.45;64.15;101906.53;5032346;28;20128;-72
2022/11/10 05:09:58;;;;;;;24.75;20.48;;;;;;;12.43;64.15;101914.06;5044158;28;20033;-73
2022/11/10 05:12:23;;;;;;;22.98;21.67;;;;;;;12.42;64.08;101925.94;5023803;28;20520;-72
2022/11/10 05:14:48;;;;;;;23.40;21.92;;;;;;;12.42;63.88;101924.03;5020080;28;20422;-74
2022/11/10 05:17:14;;;;;;;22.52;21.33;;;;;;;12.41;64.10;101927.81;5013053;28;20580;-73
2022/11/10 05:19:39;;;;;;;23.42;21.70;;;;;;;12.41;64.07;101921.59;5021259;28;20465;-73
2022/11/10 05:22:06;;;;;;;23.17;21.70;;;;;;;12.41;63.80;101916.16;5030496;28;20029;-73
2022/11/10 05:24:32;;;;;;;24.33;22.55;;;;;;;12.39;64.06;101910.13;5014579;28;20120;-72
2022/11/10 05:26:57;;;;;;;22.63;21.30;;;;;;;12.39;64.14;101908.25;5011876;28;20034;-73
2022/11/10 05:29:22;;;;;;;23.08;21.48;;;;;;;12.38;64.41;101914.72;5014261;28;20036;-73
2022/11/10 05:31:48;;;;;;;24.90;23.08;;;;;;;12.37;64.16;101913.06;5022827;28;20688;-73
2022/11/10 05:34:13;;;;;;;21.60;20.40;;;;;;;12.37;64.13;101902.22;5019373;28;20382;-76
2022/11/10 05:36:38;;;;;;;23.38;21.83;;;;;;;12.36;64.00;101911.41;5026310;28;20038;-76
2022/11/10 05:39:04;;;;;;;22.85;21.20;;;;;;;12.34;64.04;101903.50;5012375;28;20037;-73
2022/11/10 05:41:29;;;;;;;22.20;20.80;;;;;;;12.34;64.02;101917.06;5038958;28;20041;-74
2022/11/10 05:43:55;;;;;;;25.08;22.88;;;;;;;12.34;63.95;101916.22;5030601;28;20057;-74
2022/11/10 05:46:20;;;;;;;22.48;20.80;;;;;;;12.34;63.89;101927.06;5030222;28;20116;-74
2022/11/10 05:48:46;;;;;;;23.83;21.77;;;;;;;12.33;64.01;101937.09;5015372;28;20053;-74
2022/11/10 05:51:12;;;;;;;23.23;21.48;;;;;;;12.31;64.12;101933.75;5030667;28;20066;-72
2022/11/10 05:53:37;;;;;;;23.50;21.77;;;;;;;12.31;64.09;101932.94;5036700;28;20037;-74
2022/11/10 05:56:03;;;;;;;21.67;20.40;;;;;;;12.31;64.10;101936.47;5030749;28;20087;-72
2022/11/10 05:58:28;;;;;;;22.67;21.13;;;;;;;12.30;64.05;101928.59;5027491;28;20485;-72
2022/11/10 06:00:54;;;;;;;24.48;22.33;;;;;;;12.28;63.94;101928.81;5018273;28;20021;-72
2022/11/10 06:03:19;;;;;;;22.70;21.30;;;;;;;12.28;64.16;101946.94;5026722;28;20042;-72
2022/11/10 06:05:45;;;;;;;24.88;22.42;;;;;;;12.28;63.90;101944.22;5018361;28;20030;-75
2022/11/10 06:08:11;;;;;;;22.50;21.00;;;;;;;12.27;64.14;101958.81;5029678;28;20065;-72
2022/11/10 06:10:37;;;;;;;20.38;19.33;;;;;;;12.26;64.21;101960.69;5030809;28;20029;-72
2022/11/10 06:13:04;;;;;;;22.10;20.10;;;;;;;12.25;64.19;101964.47;5039411;28;20026;-73
2022/11/10 06:15:30;;;;;;;22.23;20.52;;;;;;;12.25;64.10;101963.66;5012794;28;20053;-72
2022/11/10 06:17:56;;;;;;;23.13;21.73;;;;;;;12.25;64.10;101963.66;5019129;28;20045;-73
2022/11/10 06:20:22;;;;;;;22.95;21.40;;;;;;;12.23;64.05;101966.56;5011827;28;20044;-73
2022/11/10 06:23:04;;;;;;;23.58;22.08;;;;;;;12.24;64.01;101967.41;5027445;28;20033;-73
2022/11/10 06:25:32;;;;;;;21.70;20.50;;;;;;;12.22;64.05;101962.22;5024509;28;20033;-73
2022/11/10 06:27:58;;;;;;;24.75;22.83;;;;;;;12.22;64.18;101964.94;5022733;28;20104;-73
2022/11/10 06:30:25;;;;;;;23.88;21.98;;;;;;;12.21;64.12;101975.97;5011573;28;20112;-73
2022/11/10 06:32:51;;;;;;;23.50;21.83;;;;;;;12.21;64.12;101981.38;5029961;28;20037;-73
2022/11/10 06:35:16;;;;;;;21.63;20.42;;;;;;;12.21;64.07;101987.63;5032625;28;20029;-73
2022/11/10 06:37:42;;;;;;;21.75;20.38;;;;;;;12.20;64.21;101987.88;5030591;28;20445;-73
2022/11/10 06:40:10;;;;;;;22.20;20.33;;;;;;;12.19;64.17;101995.16;5040089;28;20303;-73
2022/11/10 06:42:35;;;;;;;21.77;20.27;;;;;;;12.19;64.44;102002.44;5021022;28;20071;-73
2022/11/10 06:45:01;;;;;;;23.85;22.08;;;;;;;12.18;64.16;102007.03;5010504;28;20054;-73
2022/11/10 06:47:26;;;;;;;22.98;21.55;;;;;;;12.17;64.28;102015.38;5016507;28;20033;-74
2022/11/10 06:49:52;;;;;;;23.58;22.17;;;;;;;12.16;64.25;102019.97;5024041;28;20056;-73
2022/11/10 06:52:17;;;;;;;21.65;20.10;;;;;;;12.16;64.21;102021.88;5016550;28;20037;-73
2022/11/10 06:54:43;;;;;;;23.63;21.75;;;;;;;12.15;64.17;102021.03;5019099;28;20033;-73
2022/11/10 06:57:08;;;;;;;21.85;20.15;;;;;;;12.15;64.29;102025.63;5013303;28;20467;-72
2022/11/10 06:59:33;;;;;;;21.52;20.33;;;;;;;12.15;64.30;102031.06;5020722;28;20026;-72
2022/11/10 07:01:59;;;;;;;23.35;21.85;;;;;;;12.13;64.06;102029.38;5038635;28;20068;-73
2022/11/10 07:04:24;;;;;;;21.85;20.42;;;;;;;12.13;64.13;102031.25;5012661;28;20113;-73
2022/11/10 07:06:50;;;;;;;21.77;20.13;;;;;;;12.12;64.22;102032.31;5013640;28;20519;-73
2022/11/10 07:09:16;;;;;;;23.73;21.55;;;;;;;12.11;64.15;102034.19;5035792;28;20124;-76
2022/11/10 07:11:41;;;;;;;24.58;23.05;;;;;;;12.11;64.39;102042.31;5019960;28;20073;-72
2022/11/10 07:14:07;;;;;;;23.52;22.27;;;;;;;12.08;64.31;102037.34;5010629;28;20046;-73
2022/11/10 07:16:32;;;;;;;23.17;21.48;;;;;;;12.08;64.51;102052.75;5016938;28;20037;-72
2022/11/10 07:18:57;;;;;;;23.42;21.77;;;;;;;12.07;64.50;102067.34;5019620;28;20052;-71
2022/11/10 07:21:23;;;;;;;22.40;20.63;;;;;;;12.06;64.59;102061.09;5029745;28;20034;-71
2022/11/10 07:23:48;;;;;;;22.52;20.65;;;;;;;12.06;64.61;102065.69;5032599;28;20038;-72
2022/11/10 07:26:13;;;;;;;21.58;20.27;;;;;;;12.05;64.51;102083.00;5034272;28;20033;-74
2022/11/10 07:28:39;;;;;;;21.45;19.50;;;;;;;12.05;64.72;102080.28;5022715;28;20030;-70
2022/11/10 07:31:04;;;;;;;21.88;20.35;;;;;;;12.03;64.56;102094.03;5028998;28;20029;-70
2022/11/10 07:33:30;;;;;;;23.40;21.20;;;;;;;12.02;64.58;102088.84;5015202;28;20033;-70
2022/11/10 07:35:57;;;;;;;22.45;20.45;;;;;;;12.02;64.44;102089.69;5016173;28;20040;-71
2022/11/10 07:38:23;;;;;;;20.88;19.83;;;;;;;12.02;64.24;102091.53;5015238;28;20032;-71
2022/11/10 07:40:52;;;;;;;22.40;21.02;;;;;;;12.00;64.56;102090.97;5031353;28;20037;-72
2022/11/10 07:43:22;;;;;;;22.57;20.83;;;;;;;12.00;64.76;102089.06;5014888;28;20057;-70
2022/11/10 07:45:49;;;;;;;22.33;20.63;;;;;;;12.00;64.49;102097.19;5015079;28;20373;-70
2022/11/10 07:48:15;;;;;;;21.67;20.38;;;;;;;11.99;64.59;102092.00;5014860;28;20037;-71
2022/11/10 07:50:40;;;;;;;21.20;20.08;;;;;;;11.98;64.43;102093.88;5018481;28;20049;-70
2022/11/10 07:53:14;;;;;;;23.85;22.02;;;;;;;11.98;64.25;102093.03;5014164;28;20489;-70
2022/11/10 07:55:42;;;;;;;21.40;19.92;;;;;;;11.97;64.61;102100.34;5014458;28;20057;-70
2022/11/10 07:58:09;;;;;;;21.53;20.43;;;;;;;11.97;64.44;102103.06;5014625;28;20084;-71
2022/11/10 08:00:36;;;;;;;22.25;20.63;;;;;;;11.96;64.46;102098.66;5029838;28;20087;-70
2022/11/10 08:03:06;;;;;;;23.00;20.95;;;;;;;11.96;64.51;102114.91;5025257;28;20049;-71
2022/11/10 08:05:33;;;;;;;23.27;21.38;;;;;;;11.96;64.51;102111.38;5041347;28;20470;-70
2022/11/10 08:07:59;;;;;;;23.55;22.02;;;;;;;11.95;64.71;102115.97;5039222;28;20039;-70
2022/11/10 08:10:25;;;;;;;21.77;20.15;;;;;;;11.94;64.49;102118.91;5019582;28;20042;-70
2022/11/10 08:12:55;;;;;;;22.65;21.08;;;;;;;11.94;64.84;102130.53;5014416;28;20030;-70
2022/11/10 08:15:21;;;;;;;21.80;20.23;;;;;;;11.94;64.54;102124.31;5018172;28;20029;-70
2022/11/10 08:17:46;;;;;;;24.40;22.30;;;;;;;11.94;64.64;102135.97;5027270;28;20033;-71
2022/11/10 08:20:11;;;;;;;22.58;21.15;;;;;;;11.93;64.81;102126.19;5013892;28;20599;-71
2022/11/10 08:22:37;;;;;;;23.50;21.70;;;;;;;11.93;64.66;102142.44;5045429;28;20042;-70
2022/11/10 08:25:02;;;;;;;23.98;21.58;;;;;;;11.93;64.51;102138.91;5012729;28;20458;-71
2022/11/10 08:27:28;;;;;;;24.27;22.20;;;;;;;11.93;64.56;102142.44;5028625;28;20497;-69
2022/11/10 08:29:53;;;;;;;21.75;20.45;;;;;;;11.91;64.82;102145.34;5014099;28;20030;-71
2022/11/10 08:32:20;;;;;;;22.67;20.83;;;;;;;11.91;64.68;102148.06;5016854;28;20072;-70
2022/11/10 08:34:45;;;;;;;19.60;18.35;;;;;;;11.91;64.94;102153.47;5013539;28;20069;-69
2022/11/10 08:37:10;;;;;;;23.10;21.70;;;;;;;11.92;64.66;102148.91;5021773;28;20064;-71
2022/11/10 08:39:36;;;;;;;20.33;19.33;;;;;;;11.91;64.83;102158.06;5021629;28;20397;-70
2022/11/10 08:42:01;;;;;;;22.67;21.00;;;;;;;11.90;64.52;102154.53;5013436;28;20454;-71
2022/11/10 08:44:26;;;;;;;21.63;20.20;;;;;;;11.89;64.82;102155.59;5013889;28;20485;-70
2022/11/10 08:46:52;;;;;;;20.85;19.60;;;;;;;11.90;65.18;102162.66;5014869;28;20041;-70
2022/11/10 08:49:17;;;;;;;21.23;19.75;;;;;;;11.90;64.99;102170.78;5031960;28;20030;-70
2022/11/10 08:51:42;;;;;;;21.95;19.60;;;;;;;11.90;64.83;102159.13;5032896;28;20037;-71
2022/11/10 08:54:08;;;;;;;22.55;21.20;;;;;;;11.90;64.92;102170.78;5032488;28;20425;-70
2022/11/10 08:56:33;;;;;;;22.67;20.15;;;;;;;11.90;64.75;102167.25;5032804;28;20047;-70
2022/11/10 08:58:59;;;;;;;22.17;20.75;;;;;;;11.90;64.70;102173.50;5025266;28;20030;-72
2022/11/10 09:01:24;;;;;;;22.23;20.77;;;;;;;11.91;64.89;102168.91;5019116;28;20037;-70
2022/11/10 09:03:49;;;;;;;19.80;18.80;;;;;;;11.91;64.65;102185.16;5013053;28;20030;-71
2022/11/10 09:06:15;;;;;;;42.05;20.85;;;;;;;11.90;64.82;102183.50;5012383;28;20448;-75
2022/11/10 09:08:40;;;;;;;22.70;20.85;;;;;;;11.91;64.83;102187.84;5014264;28;20530;-70
2022/11/10 09:11:05;;;;;;;23.27;21.35;;;;;;;11.91;64.66;102193.25;5016276;28;20030;-71
2022/11/10 09:13:31;;;;;;;21.33;20.13;;;;;;;11.92;64.79;102211.19;5011241;28;20084;-70
2022/11/10 09:16:04;;;;;;;23.65;21.52;;;;;;;11.90;64.87;102205.97;5011482;28;20036;-72
2022/11/10 09:18:29;;;;;;;20.35;19.15;;;;;;;11.90;65.04;102194.31;5017116;28;20105;-69
2022/11/10 09:20:55;;;;;;;22.92;21.25;;;;;;;11.91;64.82;102201.38;5024303;28;20021;-72
2022/11/10 09:23:23;;;;;;;22.65;20.77;;;;;;;11.91;65.11;102209.50;5013745;28;20036;-71
2022/11/10 09:25:50;;;;;;;23.25;21.80;;;;;;;11.91;64.83;102202.22;5024446;28;20030;-70
2022/11/10 09:28:17;;;;;;;23.83;21.67;;;;;;;11.93;65.24;102201.19;5019407;28;20072;-71
2022/11/10 09:30:45;;;;;;;21.33;20.13;;;;;;;11.90;64.77;102207.88;5022858;28;20068;-71
2022/11/10 09:33:10;;;;;;;21.70;20.20;;;;;;;11.91;65.06;102199.50;5011297;28;20026;-72
2022/11/10 09:35:35;;;;;;;22.52;21.02;;;;;;;11.91;65.21;102196.81;5015409;28;20477;-70
2022/11/10 09:38:01;;;;;;;20.98;19.60;;;;;;;11.91;64.96;102198.69;5014156;28;20033;-72
2022/11/10 09:40:36;;;;;;;22.65;20.55;;;;;;;11.93;65.22;102195.78;5013312;28;20485;-72
2022/11/10 09:43:03;;;;;;;20.50;19.10;;;;;;;11.90;65.19;102195.16;5042594;28;20119;-72
2022/11/10 09:45:34;;;;;;;21.15;19.60;;;;;;;11.91;65.14;102198.69;5018622;28;20041;-70
2022/11/10 09:48:01;;;;;;;21.98;20.50;;;;;;;11.93;65.23;102201.19;5011424;28;20041;-71
2022/11/10 09:50:52;;;;;;;20.38;19.38;;;;;;;11.95;65.23;102193.69;5022038;28;20025;-70
2022/11/10 09:53:25;;;;;;;21.70;20.50;;;;;;;11.94;65.16;102198.25;5013661;28;20101;-70
2022/11/10 09:55:57;;;;;;;20.17;18.92;;;;;;;11.94;65.25;102203.66;5022121;28;20033;-71
2022/11/10 09:58:30;;;;;;;21.23;19.75;;;;;;;11.96;65.58;102198.88;5019730;28;20029;-71
2022/11/10 10:01:34;;;;;;;20.23;19.13;;;;;;;11.97;65.07;102211.38;5025531;28;20033;-71
2022/11/10 10:04:14;;;;;;;22.65;20.88;;;;;;;11.96;65.05;102212.41;5015630;28;20029;-71
2022/11/10 10:07:00;;;;;;;23.10;20.92;;;;;;;11.97;65.30;102219.50;5021104;28;20029;-71
2022/11/10 10:09:56;;;;;;;21.33;20.02;;;;;;;11.97;65.19;102221.34;5010677;28;20025;-70
2022/11/10 10:12:30;;;;;;;24.42;22.63;;;;;;;11.98;65.30;102225.75;5032349;28;20057;-70
2022/11/10 10:15:09;;;;;;;21.40;20.00;;;;;;;11.99;65.20;102235.50;5012240;28;20474;-70
2022/11/10 10:17:46;;;;;;;21.33;19.92;;;;;;;11.99;65.55;102240.94;5033338;28;20033;-70
2022/11/10 10:20:45;;;;;;;22.20;20.65;;;;;;;11.99;65.54;102241.75;5027700;28;20028;-70
2022/11/10 10:23:17;;;;;;;21.45;19.83;;;;;;;12.00;65.70;102248.84;5018086;28;20030;-70
2022/11/10 10:25:44;;;;;;;22.00;20.30;;;;;;;12.01;65.31;102255.91;5028634;28;20101;-71
2022/11/10 10:28:24;;;;;;;24.42;21.27;;;;;;;12.02;65.60;102260.31;5045504;28;20028;-73
2022/11/10 10:30:50;;;;;;;21.30;19.75;;;;;;;12.04;65.30;102265.50;5019186;28;20370;-70
2022/11/10 10:33:20;;;;;;;21.52;20.08;;;;;;;12.03;65.58;102261.13;5027364;28;20501;-72
2022/11/10 10:35:48;;;;;;;22.38;20.73;;;;;;;12.04;65.39;102263.59;5017702;28;20075;-72
2022/11/10 10:38:25;;;;;;;23.13;21.17;;;;;;;12.07;65.48;102267.75;5018628;28;20045;-73
2022/11/10 10:40:56;;;;;;;20.50;19.27;;;;;;;12.07;65.77;102281.31;5021123;28;20037;-73
2022/11/10 10:43:21;;;;;;;23.75;21.85;;;;;;;12.07;65.33;102281.31;5033478;28;20373;-72
2022/11/10 10:46:12;;;;;;;22.77;20.60;;;;;;;12.09;65.70;102282.75;5020015;28;20515;-72
2022/11/10 10:48:37;;;;;;;22.25;20.50;;;;;;;12.11;65.59;102285.25;5030364;28;20025;-72
2022/11/10 10:51:02;;;;;;;22.08;20.33;;;;;;;12.11;65.71;102286.09;5027607;28;20041;-72
2022/11/10 10:53:28;;;;;;;21.48;20.17;;;;;;;12.13;65.66;102285.88;5042969;28;20029;-71
2022/11/10 10:56:04;;;;;;;23.23;21.23;;;;;;;12.13;65.76;102296.72;5030883;28;20029;-72
2022/11/10 10:58:30;;;;;;;21.25;19.77;;;;;;;12.15;65.78;102280.25;5018978;28;20380;-72
2022/11/10 11:01:18;;;;;;;23.02;21.73;;;;;;;12.16;65.83;102287.31;5021438;28;20025;-72
2022/11/10 11:03:48;;;;;;;21.42;20.23;;;;;;;12.17;65.32;102270.88;5030739;28;20037;-72
2022/11/10 11:06:14;;;;;;;23.15;20.60;;;;;;;12.18;65.47;102274.41;5027566;28;20117;-72
2022/11/10 11:09:07;;;;;;;19.38;18.38;;;;;;;12.19;65.69;102271.47;5018709;28;20157;-73
2022/11/10 11:11:38;;;;;;;21.23;19.80;;;;;;;12.23;65.55;102272.69;5029722;28;20033;-72
2022/11/10 11:14:25;;;;;;;20.15;19.15;;;;;;;12.23;65.78;102263.75;5038221;28;20029;-70
2022/11/10 11:16:52;;;;;;;20.55;19.02;;;;;;;12.25;65.60;102267.91;5034479;28;20045;-71
2022/11/10 11:19:20;;;;;;;23.17;21.55;;;;;;;12.26;65.85;102268.72;5034232;28;20029;-71
2022/11/10 11:21:59;;;;;;;20.67;19.38;;;;;;;12.26;66.03;102261.41;5017327;28;20038;-70
2022/11/10 11:24:33;;;;;;;23.00;21.48;;;;;;;12.28;65.75;102269.34;5024378;28;20065;-70